Time;durP1;ratioP1;P1;durP2;ratioP2;P2;SDS_P1;SDS_P2;PMS_P1;PMS_P2;Temp;Humidity;BMP_temperature;BMP_pressure;BME280_temperature;BME280_humidity;BME280_pressure;Samples;Min_cycle;Max_cycle;Signal;HPM_P1;HPM_P2
2021/06/24 00:01:06;;;;;;;;;;;25.70;73.80;;;;;;4995311;28;92888;-54
2021/06/24 00:03:33;;;;;;;;;;;25.70;73.80;;;;;;4995088;28;92218;-49
2021/06/24 00:05:59;;;;;;;;;;;25.60;73.70;;;;;;4996065;28;93171;-52
2021/06/24 00:08:25;;;;;;;;;;;25.60;73.70;;;;;;4997190;28;93787;-54
2021/06/24 00:10:51;;;;;;;;;;;25.60;73.70;;;;;;4994112;28;94618;-54
2021/06/24 00:13:17;;;;;;;;;;;25.60;73.80;;;;;;4993590;28;93186;-54
2021/06/24 00:15:43;;;;;;;;;;;25.50;73.70;;;;;;4996268;28;93158;-51
2021/06/24 00:18:09;;;;;;;;;;;25.50;73.70;;;;;;4992341;28;93662;-56
2021/06/24 00:20:36;;;;;;;;;;;25.50;73.70;;;;;;4993779;28;92188;-54
2021/06/24 00:23:02;;;;;;;;;;;25.50;73.70;;;;;;4993446;28;93734;-52
2021/06/24 00:25:27;;;;;;;;;;;25.50;73.70;;;;;;4992998;28;93252;-51
2021/06/24 00:27:53;;;;;;;;;;;25.50;73.70;;;;;;4995186;28;91463;-52
2021/06/24 00:30:19;;;;;;;;;;;25.40;73.70;;;;;;4995844;28;92959;-54
2021/06/24 00:32:45;;;;;;;;;;;25.40;73.70;;;;;;4995781;28;94322;-54
2021/06/24 00:35:11;;;;;;;;;;;25.40;73.70;;;;;;4994357;28;94636;-52
2021/06/24 00:37:37;;;;;;;;;;;25.40;73.70;;;;;;4996130;28;95594;-51
2021/06/24 00:40:04;;;;;;;;;;;25.40;73.60;;;;;;4994447;28;93012;-53
2021/06/24 00:42:29;;;;;;;;;;;25.40;73.70;;;;;;4996484;28;94042;-54
2021/06/24 00:44:55;;;;;;;;;;;25.30;73.60;;;;;;4997169;28;94380;-51
2021/06/24 00:47:21;;;;;;;;;;;25.30;73.60;;;;;;4995743;28;93119;-52
2021/06/24 00:49:47;;;;;;;;;;;25.30;73.50;;;;;;4995741;28;92395;-55
2021/06/24 00:52:12;;;;;;;;;;;25.30;73.60;;;;;;4996820;28;93945;-51
2021/06/24 00:54:38;;;;;;;;;;;25.30;73.70;;;;;;4998047;28;92196;-50
2021/06/24 00:57:05;;;;;;;;;;;25.30;73.60;;;;;;4999318;28;92176;-51
2021/06/24 00:59:32;;;;;;;;;;;25.20;73.60;;;;;;5000206;28;95904;-50
2021/06/24 01:01:57;;;;;;;;;;;25.20;73.60;;;;;;4997476;28;92266;-51
2021/06/24 01:04:23;;;;;;;;;;;25.20;73.60;;;;;;4998213;28;93166;-55
2021/06/24 01:06:49;;;;;;;;;;;25.20;73.70;;;;;;4999612;28;92167;-56
2021/06/24 01:09:15;;;;;;;;;;;25.10;73.50;;;;;;4998873;28;94081;-54
2021/06/24 01:11:41;;;;;;;;;;;25.10;73.50;;;;;;4995449;28;94492;-50
2021/06/24 01:14:07;;;;;;;;;;;25.10;73.60;;;;;;4995084;28;92310;-52
2021/06/24 01:16:33;;;;;;;;;;;25.10;73.60;;;;;;4996010;28;93024;-51
2021/06/24 01:18:58;;;;;;;;;;;25.10;73.60;;;;;;4994311;28;93299;-52
2021/06/24 01:21:24;;;;;;;;;;;25.10;73.60;;;;;;4998884;28;92204;-51
2021/06/24 01:23:50;;;;;;;;;;;25.10;73.50;;;;;;4995769;28;93713;-53
2021/06/24 01:26:15;;;;;;;;;;;25.10;73.60;;;;;;4998057;28;92240;-50
2021/06/24 01:28:41;;;;;;;;;;;25.00;73.70;;;;;;4999305;28;92172;-55
2021/06/24 01:31:06;;;;;;;;;;;25.00;73.60;;;;;;4997026;28;93159;-54
2021/06/24 01:33:32;;;;;;;;;;;25.00;73.60;;;;;;4994571;28;93767;-53
2021/06/24 01:35:58;;;;;;;;;;;25.00;73.70;;;;;;4994623;28;93772;-54
2021/06/24 01:38:24;;;;;;;;;;;25.00;73.70;;;;;;4996991;28;94112;-50
2021/06/24 01:40:50;;;;;;;;;;;24.90;73.60;;;;;;4999509;28;92646;-52
2021/06/24 01:43:15;;;;;;;;;;;24.90;73.60;;;;;;4994634;28;93168;-54
2021/06/24 01:45:48;;;;;;;;;;;24.90;73.60;;;;;;4996466;28;92198;-55
2021/06/24 01:48:13;;;;;;;;;;;24.90;73.60;;;;;;4994639;28;93115;-52
2021/06/24 01:50:40;;;;;;;;;;;24.90;73.70;;;;;;4995218;28;93076;-52
2021/06/24 01:53:05;;;;;;;;;;;24.90;73.70;;;;;;4996264;28;92219;-52
2021/06/24 01:55:35;;;;;;;;;;;24.80;73.60;;;;;;4997046;28;93842;-51
2021/06/24 01:58:01;;;;;;;;;;;24.80;73.50;;;;;;4996775;28;94961;-51
2021/06/24 02:00:27;;;;;;;;;;;24.80;73.70;;;;;;4998896;28;93197;-53
2021/06/24 02:02:52;;;;;;;;;;;24.80;73.60;;;;;;4999469;28;92822;-55
2021/06/24 02:05:18;;;;;;;;;;;24.80;73.70;;;;;;4994880;28;91494;-54
2021/06/24 02:07:43;;;;;;;;;;;24.80;73.60;;;;;;4995583;28;92178;-52
2021/06/24 02:10:12;;;;;;;;;;;24.70;73.60;;;;;;4996183;28;92493;-55
2021/06/24 02:12:38;;;;;;;;;;;24.70;73.60;;;;;;4994085;28;94488;-52
2021/06/24 02:15:08;;;;;;;;;;;24.70;73.60;;;;;;4994079;28;95447;-54
2021/06/24 02:17:34;;;;;;;;;;;24.70;73.60;;;;;;4994188;28;94752;-55
2021/06/24 02:20:00;;;;;;;;;;;24.70;73.60;;;;;;4995130;28;92145;-51
2021/06/24 02:22:25;;;;;;;;;;;24.70;73.60;;;;;;4996501;28;92190;-51
2021/06/24 02:24:51;;;;;;;;;;;24.60;73.60;;;;;;5000082;28;92839;-51
2021/06/24 02:27:16;;;;;;;;;;;24.60;73.60;;;;;;4998830;28;92363;-52
2021/06/24 02:29:42;;;;;;;;;;;24.60;73.60;;;;;;4996208;28;92454;-54
2021/06/24 02:32:08;;;;;;;;;;;24.60;73.70;;;;;;4993981;28;92165;-52
2021/06/24 02:34:33;;;;;;;;;;;24.60;73.60;;;;;;4994924;28;93517;-52
2021/06/24 02:36:59;;;;;;;;;;;24.50;73.60;;;;;;4994778;28;94406;-52
2021/06/24 02:39:25;;;;;;;;;;;24.50;73.60;;;;;;4996588;28;92188;-55
2021/06/24 02:41:50;;;;;;;;;;;24.50;73.60;;;;;;4998040;28;92609;-54
2021/06/24 02:44:16;;;;;;;;;;;24.50;73.60;;;;;;4997953;28;94435;-54
2021/06/24 02:46:41;;;;;;;;;;;24.50;73.50;;;;;;4999825;28;93719;-54
2021/06/24 02:49:07;;;;;;;;;;;24.50;73.70;;;;;;4996010;28;93718;-52
2021/06/24 02:51:32;;;;;;;;;;;24.40;73.70;;;;;;4995855;28;94164;-53
2021/06/24 02:53:58;;;;;;;;;;;24.40;73.70;;;;;;4994606;28;92774;-53
2021/06/24 02:56:23;;;;;;;;;;;24.50;73.70;;;;;;4993869;28;93678;-51
2021/06/24 02:58:49;;;;;;;;;;;24.40;73.60;;;;;;4995445;28;92274;-50
2021/06/24 03:01:15;;;;;;;;;;;24.40;73.60;;;;;;4995748;28;93100;-53
2021/06/24 03:03:42;;;;;;;;;;;24.40;73.70;;;;;;4996299;28;93083;-49
2021/06/24 03:06:07;;;;;;;;;;;24.30;73.60;;;;;;4996121;28;92216;-54
2021/06/24 03:08:33;;;;;;;;;;;24.30;73.50;;;;;;5000574;28;92240;-51
2021/06/24 03:10:59;;;;;;;;;;;24.30;73.70;;;;;;4995935;28;93496;-50
2021/06/24 03:13:24;;;;;;;;;;;24.30;73.70;;;;;;4993277;28;92199;-50
2021/06/24 03:15:50;;;;;;;;;;;24.30;73.70;;;;;;4992704;28;94878;-50
2021/06/24 03:18:15;;;;;;;;;;;24.30;73.70;;;;;;4994788;28;91457;-52
2021/06/24 03:20:41;;;;;;;;;;;24.20;73.70;;;;;;4995535;28;93329;-54
2021/06/24 03:23:06;;;;;;;;;;;24.20;73.70;;;;;;4996253;28;93294;-54
2021/06/24 03:25:32;;;;;;;;;;;24.20;73.70;;;;;;4997009;28;94091;-51
2021/06/24 03:27:57;;;;;;;;;;;24.20;73.70;;;;;;4996496;28;93528;-51
2021/06/24 03:30:23;;;;;;;;;;;24.20;74.30;;;;;;4993645;28;92152;-55
2021/06/24 03:32:50;;;;;;;;;;;24.20;73.80;;;;;;4994387;28;92171;-54
2021/06/24 03:35:16;;;;;;;;;;;24.20;73.80;;;;;;4993795;28;93223;-52
2021/06/24 03:37:41;;;;;;;;;;;24.20;73.70;;;;;;4994988;28;92248;-51
2021/06/24 03:40:08;;;;;;;;;;;24.20;73.80;;;;;;4996323;28;92188;-53
2021/06/24 03:42:34;;;;;;;;;;;24.10;73.70;;;;;;4994684;28;92840;-52
2021/06/24 03:44:59;;;;;;;;;;;24.10;73.70;;;;;;4994470;28;92256;-52
2021/06/24 03:47:25;;;;;;;;;;;24.10;73.70;;;;;;4993373;28;93871;-51
2021/06/24 03:49:50;;;;;;;;;;;24.10;73.70;;;;;;4994470;28;93870;-51
2021/06/24 03:52:16;;;;;;;;;;;24.10;73.70;;;;;;4993146;28;93523;-50
2021/06/24 03:54:42;;;;;;;;;;;24.10;73.80;;;;;;4993512;28;94557;-53
2021/06/24 03:57:09;;;;;;;;;;;24.10;73.80;;;;;;4993349;28;92253;-51
2021/06/24 03:59:34;;;;;;;;;;;24.00;73.80;;;;;;4993386;28;92571;-52
2021/06/24 04:02:00;;;;;;;;;;;24.00;73.80;;;;;;4994172;28;93279;-52
2021/06/24 04:04:25;;;;;;;;;;;24.00;73.80;;;;;;4995901;28;92184;-54
2021/06/24 04:06:51;;;;;;;;;;;24.00;73.80;;;;;;4997720;28;92641;-56
2021/06/24 04:09:16;;;;;;;;;;;24.00;73.80;;;;;;4994637;28;93123;-55
2021/06/24 04:11:42;;;;;;;;;;;24.00;73.80;;;;;;4998042;28;92983;-53
2021/06/24 04:14:08;;;;;;;;;;;23.90;73.80;;;;;;4991190;28;95298;-50
2021/06/24 04:16:33;;;;;;;;;;;23.90;73.80;;;;;;4993538;28;92304;-52
2021/06/24 04:18:59;;;;;;;;;;;23.90;73.90;;;;;;4997714;28;92204;-54
2021/06/24 04:21:24;;;;;;;;;;;23.90;73.90;;;;;;4998855;28;92908;-52
2021/06/24 04:23:50;;;;;;;;;;;23.90;73.90;;;;;;5000700;28;92191;-51
2021/06/24 04:26:15;;;;;;;;;;;23.90;73.90;;;;;;4997359;28;94129;-50
2021/06/24 04:28:41;;;;;;;;;;;23.90;74.00;;;;;;4995621;28;92568;-50
2021/06/24 04:31:07;;;;;;;;;;;23.90;73.90;;;;;;4997702;28;91547;-51
2021/06/24 04:33:35;;;;;;;;;;;23.80;73.90;;;;;;5000458;28;93355;-51
2021/06/24 04:36:01;;;;;;;;;;;23.90;74.00;;;;;;4996476;28;93861;-52
2021/06/24 04:38:27;;;;;;;;;;;23.90;74.00;;;;;;4995437;28;94048;-51
2021/06/24 04:40:52;;;;;;;;;;;23.80;74.00;;;;;;4996737;28;94956;-51
2021/06/24 04:43:18;;;;;;;;;;;23.80;74.00;;;;;;4998413;28;92220;-51
2021/06/24 04:45:43;;;;;;;;;;;23.80;74.00;;;;;;4998848;28;92256;-52
2021/06/24 04:48:09;;;;;;;;;;;23.80;74.00;;;;;;4998826;28;94519;-54
2021/06/24 04:50:36;;;;;;;;;;;23.80;74.00;;;;;;4998690;28;93134;-52
2021/06/24 04:53:02;;;;;;;;;;;23.80;74.10;;;;;;4999209;28;94263;-53
2021/06/24 04:55:28;;;;;;;;;;;23.80;74.00;;;;;;5001920;28;93526;-52
2021/06/24 04:57:54;;;;;;;;;;;23.80;74.00;;;;;;4998219;28;92195;-52
2021/06/24 05:00:19;;;;;;;;;;;23.80;74.00;;;;;;4998681;28;93648;-51
2021/06/24 05:02:45;;;;;;;;;;;23.70;74.10;;;;;;4999262;28;94663;-51
2021/06/24 05:05:11;;;;;;;;;;;23.80;74.20;;;;;;4996685;28;94622;-52
2021/06/24 05:07:37;;;;;;;;;;;23.80;74.20;;;;;;4994973;28;93898;-52
2021/06/24 05:10:03;;;;;;;;;;;23.70;74.10;;;;;;4996067;28;92225;-52
2021/06/24 05:12:29;;;;;;;;;;;23.80;74.30;;;;;;4995579;28;95381;-52
2021/06/24 05:14:54;;;;;;;;;;;23.80;74.30;;;;;;4996406;28;93272;-52
2021/06/24 05:17:20;;;;;;;;;;;23.80;74.40;;;;;;5001193;28;92198;-51
2021/06/24 05:19:46;;;;;;;;;;;23.80;74.30;;;;;;4999049;28;93745;-52
2021/06/24 05:22:12;;;;;;;;;;;23.80;74.40;;;;;;4998903;28;92926;-51
2021/06/24 05:24:41;;;;;;;;;;;23.80;74.40;;;;;;4997700;28;93650;-55
2021/06/24 05:27:07;;;;;;;;;;;23.80;74.40;;;;;;4994883;28;95392;-52
2021/06/24 05:29:32;;;;;;;;;;;23.80;74.50;;;;;;4995820;28;92184;-51
2021/06/24 05:31:58;;;;;;;;;;;23.80;74.50;;;;;;4997793;28;92695;-51
2021/06/24 05:34:23;;;;;;;;;;;23.80;74.50;;;;;;4997452;28;93172;-50
2021/06/24 05:36:49;;;;;;;;;;;23.80;74.60;;;;;;5001302;28;92157;-52
2021/06/24 05:39:14;;;;;;;;;;;23.80;74.60;;;;;;4998190;28;92685;-51
2021/06/24 05:41:40;;;;;;;;;;;23.80;74.70;;;;;;4998106;28;92879;-52
2021/06/24 05:44:05;;;;;;;;;;;23.80;74.80;;;;;;4995235;28;93038;-54
2021/06/24 05:46:31;;;;;;;;;;;23.80;74.80;;;;;;4995000;28;93198;-51
2021/06/24 05:48:56;;;;;;;;;;;23.80;74.80;;;;;;4996776;28;92340;-50
2021/06/24 05:51:25;;;;;;;;;;;23.80;74.90;;;;;;4997285;28;93169;-50
2021/06/24 05:53:51;;;;;;;;;;;23.80;74.80;;;;;;4995025;28;93225;-54
2021/06/24 05:56:16;;;;;;;;;;;23.80;74.90;;;;;;4996049;28;92170;-50
2021/06/24 05:58:42;;;;;;;;;;;23.80;74.90;;;;;;4999486;28;92650;-50
2021/06/24 06:01:07;;;;;;;;;;;23.80;74.90;;;;;;4998239;28;92324;-52
2021/06/24 06:03:33;;;;;;;;;;;23.80;75.00;;;;;;4998452;28;92707;-51
2021/06/24 06:05:58;;;;;;;;;;;23.80;75.10;;;;;;4994621;28;93459;-51
2021/06/24 06:08:24;;;;;;;;;;;23.80;75.10;;;;;;4995010;28;92202;-52
2021/06/24 06:10:50;;;;;;;;;;;23.80;75.10;;;;;;4994727;28;92221;-50
2021/06/24 06:13:16;;;;;;;;;;;23.80;75.20;;;;;;4995199;28;94018;-51
2021/06/24 06:15:42;;;;;;;;;;;23.90;75.20;;;;;;4995249;28;93150;-51
2021/06/24 06:18:14;;;;;;;;;;;23.80;75.20;;;;;;4994933;28;93479;-51
2021/06/24 06:20:40;;;;;;;;;;;23.90;75.30;;;;;;4997301;28;93144;-55
2021/06/24 06:23:05;;;;;;;;;;;23.80;75.30;;;;;;4995343;28;92129;-50
2021/06/24 06:25:31;;;;;;;;;;;23.80;75.20;;;;;;4994470;28;94795;-49
2021/06/24 06:27:57;;;;;;;;;;;23.90;75.30;;;;;;4996298;28;92241;-52
2021/06/24 06:30:23;;;;;;;;;;;23.90;75.40;;;;;;4997226;28;92174;-51
2021/06/24 06:32:49;;;;;;;;;;;23.90;75.40;;;;;;4997176;28;92862;-51
2021/06/24 06:35:14;;;;;;;;;;;23.90;75.30;;;;;;4998284;28;92243;-53
2021/06/24 06:37:40;;;;;;;;;;;23.90;75.40;;;;;;4998316;28;93957;-54
2021/06/24 06:40:05;;;;;;;;;;;23.90;75.50;;;;;;4994205;28;95163;-51
2021/06/24 06:42:31;;;;;;;;;;;23.90;75.50;;;;;;4996007;28;92220;-52
2021/06/24 06:44:56;;;;;;;;;;;23.90;75.40;;;;;;4994538;28;92343;-52
2021/06/24 06:47:22;;;;;;;;;;;23.90;75.50;;;;;;4996339;28;92192;-53
2021/06/24 06:49:47;;;;;;;;;;;23.90;75.50;;;;;;4997278;28;93553;-54
2021/06/24 06:52:13;;;;;;;;;;;23.90;75.60;;;;;;4996588;28;93145;-50
2021/06/24 06:54:38;;;;;;;;;;;23.90;75.70;;;;;;4993871;28;93345;-50
2021/06/24 06:57:05;;;;;;;;;;;23.90;75.60;;;;;;4994398;28;94156;-51
2021/06/24 06:59:30;;;;;;;;;;;23.90;75.70;;;;;;4996528;28;94125;-50
2021/06/24 07:01:56;;;;;;;;;;;23.90;75.70;;;;;;4994236;28;92141;-50
2021/06/24 07:04:22;;;;;;;;;;;23.90;75.70;;;;;;4995669;28;93123;-50
2021/06/24 07:06:48;;;;;;;;;;;24.00;75.80;;;;;;4994803;28;92187;-50
2021/06/24 07:09:13;;;;;;;;;;;24.00;75.80;;;;;;4993693;28;92225;-52
2021/06/24 07:11:39;;;;;;;;;;;24.00;75.70;;;;;;4992879;28;92834;-50
2021/06/24 07:14:04;;;;;;;;;;;24.00;75.80;;;;;;4994128;28;92252;-50
2021/06/24 07:16:30;;;;;;;;;;;24.00;75.70;;;;;;4995149;28;93926;-50
2021/06/24 07:18:56;;;;;;;;;;;24.00;75.60;;;;;;4995919;28;93426;-52
2021/06/24 07:21:21;;;;;;;;;;;24.10;75.80;;;;;;4997146;28;91475;-50
2021/06/24 07:23:47;;;;;;;;;;;24.10;75.70;;;;;;4997586;28;92247;-51
2021/06/24 07:26:13;;;;;;;;;;;24.00;75.70;;;;;;4998073;28;93209;-50
2021/06/24 07:28:38;;;;;;;;;;;24.10;75.70;;;;;;4993679;28;93822;-50
2021/06/24 07:31:04;;;;;;;;;;;24.10;75.70;;;;;;4993010;28;93073;-51
2021/06/24 07:33:30;;;;;;;;;;;24.10;75.70;;;;;;4994717;28;92207;-49
2021/06/24 07:35:56;;;;;;;;;;;24.10;75.70;;;;;;4994614;28;94022;-50
2021/06/24 07:38:21;;;;;;;;;;;24.10;75.80;;;;;;4995033;28;94861;-50
2021/06/24 07:40:47;;;;;;;;;;;24.10;75.60;;;;;;4996960;28;92242;-52
2021/06/24 07:43:12;;;;;;;;;;;24.10;75.80;;;;;;4996304;28;93183;-50
2021/06/24 07:45:38;;;;;;;;;;;24.10;75.70;;;;;;4995758;28;94334;-50
2021/06/24 07:48:06;;;;;;;;;;;24.10;75.70;;;;;;4993929;28;92258;-53
2021/06/24 07:50:32;;;;;;;;;;;24.20;75.70;;;;;;4993132;28;94202;-50
2021/06/24 07:52:58;;;;;;;;;;;24.20;75.70;;;;;;4992270;28;94055;-52
2021/06/24 07:55:32;;;;;;;;;;;24.20;75.70;;;;;;4993316;28;92839;-55
2021/06/24 07:57:58;;;;;;;;;;;24.20;75.70;;;;;;4995080;28;94260;-51
2021/06/24 08:00:24;;;;;;;;;;;24.20;75.80;;;;;;4996704;28;92242;-52
2021/06/24 08:02:49;;;;;;;;;;;24.20;75.70;;;;;;4995904;28;93434;-51
2021/06/24 08:05:15;;;;;;;;;;;24.20;75.80;;;;;;4992165;28;93559;-50
2021/06/24 08:07:44;;;;;;;;;;;24.20;75.50;;;;;;4996287;28;92208;-51
2021/06/24 08:10:10;;;;;;;;;;;24.20;76.20;;;;;;4996752;28;92360;-51
2021/06/24 08:12:35;;;;;;;;;;;24.20;75.60;;;;;;4997013;28;92260;-51
2021/06/24 08:15:01;;;;;;;;;;;24.20;75.60;;;;;;4996492;28;92490;-53
2021/06/24 08:17:26;;;;;;;;;;;24.30;75.70;;;;;;4995927;28;95500;-51
2021/06/24 08:19:52;;;;;;;;;;;24.30;75.70;;;;;;4994279;28;92922;-50
2021/06/24 08:22:18;;;;;;;;;;;24.30;76.30;;;;;;4992660;28;93571;-51
2021/06/24 08:24:43;;;;;;;;;;;24.30;75.50;;;;;;4993173;28;94524;-53
2021/06/24 08:27:09;;;;;;;;;;;24.30;75.60;;;;;;4993794;28;92266;-51
2021/06/24 08:29:34;;;;;;;;;;;24.30;75.60;;;;;;4997266;28;93980;-50
2021/06/24 08:32:01;;;;;;;;;;;24.30;75.60;;;;;;4995808;28;92191;-50
2021/06/24 08:34:29;;;;;;;;;;;24.30;75.80;;;;;;4996323;28;93391;-54
2021/06/24 08:36:55;;;;;;;;;;;24.30;75.70;;;;;;4992908;28;93735;-50
2021/06/24 08:39:20;;;;;;;;;;;24.30;75.80;;;;;;4994632;28;92211;-50
2021/06/24 08:41:48;;;;;;;;;;;24.30;75.70;;;;;;4995344;28;93142;-50
2021/06/24 08:44:14;;;;;;;;;;;24.40;75.70;;;;;;4993685;28;93194;-52
2021/06/24 08:46:39;;;;;;;;;;;24.40;75.70;;;;;;4994145;28;92187;-53
2021/06/24 08:49:05;;;;;;;;;;;24.40;75.80;;;;;;4993246;28;94044;-52
2021/06/24 08:51:31;;;;;;;;;;;24.40;75.80;;;;;;4996016;28;94331;-51
2021/06/24 08:53:58;;;;;;;;;;;24.40;76.10;;;;;;4993986;28;94149;-52
2021/06/24 08:56:23;;;;;;;;;;;24.40;76.00;;;;;;4992706;28;93054;-51
2021/06/24 08:58:52;;;;;;;;;;;24.40;76.00;;;;;;4994832;28;91482;-52
2021/06/24 09:01:18;;;;;;;;;;;24.50;76.20;;;;;;4992225;28;92973;-50
2021/06/24 09:03:45;;;;;;;;;;;24.50;75.70;;;;;;4991736;28;94398;-50
2021/06/24 09:06:10;;;;;;;;;;;24.50;76.00;;;;;;4994800;28;94412;-54
2021/06/24 09:08:45;;;;;;;;;;;24.50;76.00;;;;;;4995798;28;94730;-53
2021/06/24 09:11:12;;;;;;;;;;;24.60;76.10;;;;;;4997789;28;94610;-49
2021/06/24 09:13:38;;;;;;;;;;;24.60;75.90;;;;;;5000539;28;92247;-51
2021/06/24 09:16:06;;;;;;;;;;;24.60;76.00;;;;;;4997698;28;94211;-53
2021/06/24 09:18:31;;;;;;;;;;;24.60;76.00;;;;;;4996585;28;92228;-51
2021/06/24 09:20:57;;;;;;;;;;;24.60;75.90;;;;;;4998052;28;92611;-50
2021/06/24 09:23:24;;;;;;;;;;;24.60;76.10;;;;;;4999108;28;93683;-53
2021/06/24 09:26:13;;;;;;;;;;;24.60;76.10;;;;;;4997693;28;92264;-50
2021/06/24 09:28:39;;;;;;;;;;;24.60;76.10;;;;;;4997715;28;93957;-53
2021/06/24 09:31:19;;;;;;;;;;;24.70;76.10;;;;;;4997280;28;94024;-51
2021/06/24 09:33:44;;;;;;;;;;;24.70;76.10;;;;;;4999477;28;92196;-51
2021/06/24 09:36:10;;;;;;;;;;;24.70;75.90;;;;;;5001816;28;92199;-51
2021/06/24 09:38:40;;;;;;;;;;;24.70;76.00;;;;;;4997464;28;92963;-53
2021/06/24 09:41:13;;;;;;;;;;;24.80;75.80;;;;;;4995000;28;92462;-51
2021/06/24 09:43:41;;;;;;;;;;;24.80;75.80;;;;;;4996905;28;93104;-52
2021/06/24 09:46:12;;;;;;;;;;;24.80;75.80;;;;;;4997253;28;92231;-50
2021/06/24 09:48:39;;;;;;;;;;;24.80;76.00;;;;;;4998127;28;93865;-54
2021/06/24 09:51:25;;;;;;;;;;;24.80;76.00;;;;;;4994840;28;94545;-52
2021/06/24 09:53:52;;;;;;;;;;;24.80;76.10;;;;;;4996192;28;92293;-52
2021/06/24 09:56:19;;;;;;;;;;;24.80;76.00;;;;;;4997536;28;93854;-51
2021/06/24 09:58:48;;;;;;;;;;;24.80;76.10;;;;;;4995261;28;92294;-52
2021/06/24 10:01:25;;;;;;;;;;;24.90;76.10;;;;;;4998678;28;93412;-51
2021/06/24 10:03:51;;;;;;;;;;;24.90;76.10;;;;;;4997179;28;93372;-50
2021/06/24 10:06:16;;;;;;;;;;;24.90;75.80;;;;;;4998688;28;92235;-50
2021/06/24 10:08:42;;;;;;;;;;;24.90;75.80;;;;;;4998765;28;92671;-54
2021/06/24 10:11:07;;;;;;;;;;;24.90;75.70;;;;;;4996073;28;93655;-53
2021/06/24 10:13:33;;;;;;;;;;;24.90;75.60;;;;;;4994827;28;91477;-52
2021/06/24 10:15:59;;;;;;;;;;;25.00;75.60;;;;;;4995278;28;93534;-52
2021/06/24 10:18:25;;;;;;;;;;;25.00;75.60;;;;;;4999152;28;93427;-51
2021/06/24 10:20:51;;;;;;;;;;;25.00;75.60;;;;;;4996180;28;93097;-50
2021/06/24 10:23:18;;;;;;;;;;;25.10;75.80;;;;;;4997313;28;92995;-54
2021/06/24 10:25:45;;;;;;;;;;;25.10;75.40;;;;;;4996390;28;92325;-52
2021/06/24 10:28:12;;;;;;;;;;;25.10;75.60;;;;;;4996115;28;93850;-51
2021/06/24 10:30:39;;;;;;;;;;;25.10;75.50;;;;;;4994658;28;94365;-50
2021/06/24 10:33:08;;;;;;;;;;;25.10;75.50;;;;;;4994393;28;92249;-51
2021/06/24 10:35:35;;;;;;;;;;;25.20;75.70;;;;;;4997008;28;92823;-53
2021/06/24 10:38:02;;;;;;;;;;;25.10;75.40;;;;;;4996313;28;93985;-53
2021/06/24 10:40:33;;;;;;;;;;;25.20;75.20;;;;;;4999235;28;92192;-50
2021/06/24 10:43:03;;;;;;;;;;;25.20;75.10;;;;;;4995245;28;94199;-51
2021/06/24 10:45:29;;;;;;;;;;;25.30;75.40;;;;;;4997540;28;93223;-56
2021/06/24 10:47:56;;;;;;;;;;;25.30;75.40;;;;;;4996464;28;95052;-50
2021/06/24 10:50:33;;;;;;;;;;;25.30;75.30;;;;;;4997297;28;94954;-52
2021/06/24 10:53:19;;;;;;;;;;;25.30;75.40;;;;;;4997058;28;92228;-51
2021/06/24 10:55:50;;;;;;;;;;;25.30;75.80;;;;;;4996764;28;93152;-50
2021/06/24 10:58:18;;;;;;;;;;;25.30;75.40;;;;;;4994511;28;94046;-51
2021/06/24 11:00:44;;;;;;;;;;;25.30;75.00;;;;;;4996604;28;92200;-54
2021/06/24 11:03:16;;;;;;;;;;;25.40;75.10;;;;;;5000760;28;93833;-53
2021/06/24 11:05:42;;;;;;;;;;;25.40;75.10;;;;;;4996615;28;92358;-52
2021/06/24 11:08:08;;;;;;;;;;;25.40;75.30;;;;;;4996705;28;93121;-52
2021/06/24 11:10:48;;;;;;;;;;;25.40;75.20;;;;;;4996451;28;95110;-51
2021/06/24 11:13:16;;;;;;;;;;;25.40;75.20;;;;;;4994505;28;93696;-52
2021/06/24 11:15:42;;;;;;;;;;;25.50;75.50;;;;;;4996437;28;93947;-50
2021/06/24 11:18:08;;;;;;;;;;;25.50;75.20;;;;;;4996801;28;94417;-54
2021/06/24 11:20:42;;;;;;;;;;;25.50;75.10;;;;;;4997041;28;92876;-53
2021/06/24 11:23:28;;;;;;;;;;;25.50;75.30;;;;;;4993740;28;92384;-51
2021/06/24 11:26:11;;;;;;;;;;;25.50;75.10;;;;;;4997753;28;93227;-51
2021/06/24 11:31:12;;;;;;;;;;;25.60;74.80;;;;;;4996214;28;92880;-50
2021/06/24 11:33:49;;;;;;;;;;;25.60;75.00;;;;;;4995749;28;92180;-51
2021/06/24 11:36:19;;;;;;;;;;;25.70;74.80;;;;;;4994618;28;94242;-50
2021/06/24 11:38:49;;;;;;;;;;;25.70;74.90;;;;;;4996271;28;94385;-54
2021/06/24 11:41:21;;;;;;;;;;;25.70;74.90;;;;;;4994906;28;93710;-53
2021/06/24 11:44:00;;;;;;;;;;;25.70;74.60;;;;;;4997017;28;92247;-52
2021/06/24 11:46:26;;;;;;;;;;;25.80;74.90;;;;;;4994737;28;94104;-52
2021/06/24 11:48:56;;;;;;;;;;;25.80;74.70;;;;;;4998755;28;93851;-50
2021/06/24 12:05:23;;;;;;;;;;;25.90;74.40;;;;;;4995359;28;92596;-54
2021/06/24 12:07:49;;;;;;;;;;;25.90;74.60;;;;;;4995194;28;93887;-51
2021/06/24 12:10:19;;;;;;;;;;;26.00;74.70;;;;;;4995910;28;92292;-52
2021/06/24 12:12:45;;;;;;;;;;;26.00;74.70;;;;;;4991762;28;93172;-50
2021/06/24 12:15:11;;;;;;;;;;;26.00;74.50;;;;;;4995411;28;93868;-52
2021/06/24 12:17:38;;;;;;;;;;;26.00;74.50;;;;;;4995234;28;93229;-52
2021/06/24 12:20:04;;;;;;;;;;;26.10;74.70;;;;;;4995952;28;92531;-51
2021/06/24 12:22:39;;;;;;;;;;;26.10;74.70;;;;;;4996147;28;92288;-53
2021/06/24 12:25:06;;;;;;;;;;;26.10;74.60;;;;;;4994266;28;94186;-49
2021/06/24 12:27:33;;;;;;;;;;;26.10;74.30;;;;;;4995737;28;94110;-53
2021/06/24 12:30:05;;;;;;;;;;;26.10;74.30;;;;;;4994789;28;92393;-51
2021/06/24 12:32:31;;;;;;;;;;;26.20;74.00;;;;;;4998134;28;92639;-51
2021/06/24 12:34:57;;;;;;;;;;;26.20;74.50;;;;;;4996558;28;92198;-54
2021/06/24 12:37:44;;;;;;;;;;;26.20;74.30;;;;;;4996248;28;93564;-50
2021/06/24 12:40:12;;;;;;;;;;;26.20;74.40;;;;;;4998496;28;94417;-51
2021/06/24 12:42:43;;;;;;;;;;;26.30;74.00;;;;;;4998181;28;92293;-53
2021/06/24 12:45:09;;;;;;;;;;;26.30;74.20;;;;;;4998714;28;93506;-50
2021/06/24 12:47:43;;;;;;;;;;;26.30;73.90;;;;;;4998384;28;92997;-51
2021/06/24 12:50:13;;;;;;;;;;;26.40;74.00;;;;;;4995748;28;92200;-51
2021/06/24 12:52:49;;;;;;;;;;;26.40;73.80;;;;;;4996642;28;94075;-53
2021/06/24 12:55:37;;;;;;;;;;;26.40;73.80;;;;;;5000699;28;94529;-52
2021/06/24 12:58:05;;;;;;;;;;;26.40;73.70;;;;;;4996874;28;94095;-51
2021/06/24 13:00:31;;;;;;;;;;;26.50;73.40;;;;;;4997303;28;93514;-51
2021/06/24 13:02:56;;;;;;;;;;;26.50;73.50;;;;;;4996338;28;93504;-50
2021/06/24 13:05:23;;;;;;;;;;;26.50;73.50;;;;;;4995541;28;93528;-52
2021/06/24 13:07:55;;;;;;;;;;;26.60;73.30;;;;;;4994708;28;93099;-55
2021/06/24 13:10:20;;;;;;;;;;;26.60;73.10;;;;;;4998139;28;92158;-51
2021/06/24 13:12:49;;;;;;;;;;;26.60;72.90;;;;;;4995398;28;92227;-50
2021/06/24 13:15:34;;;;;;;;;;;26.60;72.50;;;;;;4997620;28;93644;-51
2021/06/24 13:18:00;;;;;;;;;;;26.60;72.60;;;;;;5001179;28;94322;-50
2021/06/24 13:20:26;;;;;;;;;;;26.70;71.40;;;;;;4996077;28;94797;-52
2021/06/24 13:23:04;;;;;;;;;;;26.70;71.00;;;;;;4995336;28;93273;-51
2021/06/24 13:25:29;;;;;;;;;;;26.80;70.60;;;;;;4999849;28;92182;-51
2021/06/24 13:28:03;;;;;;;;;;;26.90;70.60;;;;;;4996914;28;93772;-51
2021/06/24 13:30:29;;;;;;;;;;;26.80;71.00;;;;;;4997219;28;92179;-55
2021/06/24 13:32:56;;;;;;;;;;;26.90;71.10;;;;;;4998440;28;92250;-51
2021/06/24 13:35:29;;;;;;;;;;;26.80;71.40;;;;;;4998009;28;92537;-54
2021/06/24 13:37:55;;;;;;;;;;;26.90;71.40;;;;;;4995596;28;92156;-50
2021/06/24 13:40:21;;;;;;;;;;;26.90;71.90;;;;;;4999146;28;92187;-49
2021/06/24 13:42:51;;;;;;;;;;;26.90;71.60;;;;;;4995483;28;93155;-50
2021/06/24 13:45:16;;;;;;;;;;;26.90;71.40;;;;;;4998996;28;94733;-53
2021/06/24 13:47:42;;;;;;;;;;;27.00;70.60;;;;;;4996689;28;94348;-51
2021/06/24 13:50:07;;;;;;;;;;;27.00;70.50;;;;;;4993862;28;92186;-50
2021/06/24 13:52:33;;;;;;;;;;;27.10;69.90;;;;;;4995565;28;92508;-51
2021/06/24 13:55:00;;;;;;;;;;;27.10;69.60;;;;;;4995198;28;92701;-50
2021/06/24 13:57:25;;;;;;;;;;;27.20;69.90;;;;;;4995096;28;92200;-51
2021/06/24 13:59:51;;;;;;;;;;;27.20;69.60;;;;;;4999377;28;92508;-52
2021/06/24 14:02:16;;;;;;;;;;;27.20;70.80;;;;;;4997411;28;92196;-51
2021/06/24 14:04:42;;;;;;;;;;;27.30;70.60;;;;;;4998780;28;92311;-54
2021/06/24 14:07:07;;;;;;;;;;;27.30;70.30;;;;;;4997659;28;93978;-51
2021/06/24 14:09:33;;;;;;;;;;;27.30;70.40;;;;;;4997582;28;93739;-50
2021/06/24 14:11:58;;;;;;;;;;;27.30;69.70;;;;;;4994174;28;94316;-51
2021/06/24 14:14:24;;;;;;;;;;;27.40;69.70;;;;;;4994622;28;94118;-52
2021/06/24 14:16:50;;;;;;;;;;;27.40;69.20;;;;;;4996472;28;92199;-53
2021/06/24 14:19:15;;;;;;;;;;;27.40;69.40;;;;;;4995887;28;94002;-50
2021/06/24 14:21:41;;;;;;;;;;;27.50;68.70;;;;;;4998460;28;94681;-50
2021/06/24 14:24:06;;;;;;;;;;;27.50;67.30;;;;;;4997589;28;92477;-50
2021/06/24 14:26:33;;;;;;;;;;;27.60;68.10;;;;;;4996085;28;94260;-50
2021/06/24 14:28:59;;;;;;;;;;;27.60;68.20;;;;;;4997122;28;92173;-51
2021/06/24 14:31:25;;;;;;;;;;;27.60;67.10;;;;;;4995707;28;93094;-49